Matozinhos, Brazil
Current Conditions -  °F | °C
As of 2:00 PM on Friday 28 Nov 2014 (Local Time) from SBLS Reporting Station
Thunderstorm Thunderstorm  
Wind Chill: 70°   Ceiling: 100
Heat Index: 70°   Visibility: 0.31mi
Dew Point: 68°   Wind: 10mph
Humidity: 94%   Direction: 360°N
Pressure: 30.06"   Gusts: 26mph
Location:  19.56°S, 44.08°W
Report Text: SBLS 281600Z 36009G23KT 300V080 0500 +TSRA BKN001 SCT020 FEW023CB BKN070 21/20 Q1018
Loading
Personal Weather Stations






























Interactive Weather Map New forecast layout! Learn more

10-Day Weather Forecast

Advertisements
Track Severe Weather on mobile